createdAt,value
2024-03-07T00:00:49.079Z,27.50
2024-03-07T00:03:18.339Z,26.25
2024-03-07T00:05:47.617Z,28.10
2024-03-07T00:08:16.889Z,28.25
2024-03-07T00:10:45.436Z,28.02
2024-03-07T00:13:14.680Z,29.15
2024-03-07T00:15:42.778Z,27.05
2024-03-07T00:18:11.839Z,27.98
2024-03-07T00:20:44.167Z,27.85
2024-03-07T00:23:13.419Z,26.38
2024-03-07T00:25:40.353Z,27.65
2024-03-07T00:28:08.226Z,25.83
2024-03-07T00:30:39.712Z,26.23
2024-03-07T00:33:09.506Z,26.33
2024-03-07T00:35:40.939Z,27.10
2024-03-07T00:38:07.898Z,26.92
2024-03-07T00:40:37.125Z,27.38
2024-03-07T00:43:08.757Z,26.65
2024-03-07T00:45:35.732Z,26.80
2024-03-07T00:48:02.837Z,25.67
2024-03-07T00:50:31.994Z,25.38
2024-03-07T00:52:59.060Z,24.48
2024-03-07T00:55:26.112Z,25.73
2024-03-07T00:57:55.405Z,27.25
2024-03-07T01:00:22.884Z,25.80
2024-03-07T01:02:50.110Z,27.05
2024-03-07T01:05:18.860Z,25.58
2024-03-07T01:07:47.483Z,27.00
2024-03-07T01:10:15.818Z,27.38
2024-03-07T01:12:45.819Z,26.65
2024-03-07T01:15:17.993Z,26.88
2024-03-07T01:17:47.268Z,27.95
2024-03-07T01:22:41.294Z,26.70
2024-03-07T01:25:08.343Z,27.73
2024-03-07T01:27:35.402Z,27.25
2024-03-07T01:30:03.242Z,27.83
2024-03-07T01:32:30.726Z,28.48
2024-03-07T01:34:57.708Z,27.90
2024-03-07T01:37:24.747Z,28.92
2024-03-07T01:39:51.681Z,27.00
2024-03-07T01:42:18.723Z,29.05
2024-03-07T01:44:46.042Z,27.00
2024-03-07T01:47:16.744Z,29.08
2024-03-07T01:49:46.022Z,30.15
2024-03-07T01:52:18.397Z,29.60
2024-03-07T01:54:45.401Z,29.85
2024-03-07T01:57:14.356Z,30.48
2024-03-07T01:59:44.827Z,30.10
2024-03-07T02:02:13.895Z,30.52
2024-03-07T02:04:43.593Z,30.75
2024-03-07T02:07:12.853Z,30.83
2024-03-07T02:09:39.876Z,31.73
2024-03-07T02:12:07.328Z,31.63
2024-03-07T02:14:34.568Z,31.55
2024-03-07T02:17:01.854Z,32.03
2024-03-07T02:21:55.709Z,31.92
2024-03-07T02:24:25.189Z,32.88
2024-03-07T02:26:54.916Z,31.90
2024-03-07T02:29:22.084Z,31.65
2024-03-07T02:31:49.312Z,32.83
2024-03-07T02:34:16.190Z,32.45
2024-03-07T02:36:43.033Z,34.35
2024-03-07T02:39:10.868Z,32.13
2024-03-07T02:41:37.762Z,32.67
2024-03-07T02:44:07.285Z,35.47
2024-03-07T02:46:34.193Z,35.22
2024-03-07T02:49:01.461Z,34.10
2024-03-07T02:53:58.005Z,33.40
2024-03-07T02:56:26.302Z,34.55
2024-03-07T02:58:56.818Z,34.30
2024-03-07T03:01:26.030Z,35.08
2024-03-07T03:03:53.271Z,36.40
2024-03-07T03:06:21.680Z,34.88
2024-03-07T03:08:49.249Z,36.05
2024-03-07T03:11:21.663Z,34.95
2024-03-07T03:13:49.793Z,34.33
2024-03-07T03:16:27.263Z,35.55
2024-03-07T03:19:01.438Z,34.20
2024-03-07T03:21:28.719Z,35.72
2024-03-07T03:23:56.118Z,35.72
2024-03-07T03:28:53.726Z,34.22
2024-03-07T03:31:21.180Z,34.67
2024-03-07T03:33:48.376Z,37.17
2024-03-07T03:36:17.461Z,36.45
2024-03-07T03:38:46.914Z,37.45
2024-03-07T03:41:18.039Z,36.75
2024-03-07T03:43:45.492Z,37.20
2024-03-07T03:48:42.834Z,38.08
2024-03-07T03:51:14.125Z,36.22
2024-03-07T03:53:44.406Z,38.10
2024-03-07T03:56:13.332Z,38.40
2024-03-07T03:58:44.212Z,36.67
2024-03-07T04:01:14.454Z,39.95
2024-03-07T04:03:41.640Z,39.10
2024-03-07T04:06:08.767Z,39.70
2024-03-07T04:08:38.111Z,39.45
2024-03-07T04:11:05.998Z,40.05
2024-03-07T04:13:35.479Z,39.25
2024-03-07T04:16:02.329Z,38.35
2024-03-07T04:18:29.247Z,37.97
2024-03-07T04:20:56.203Z,39.08
2024-03-07T04:23:23.139Z,37.47
2024-03-07T04:25:52.546Z,41.00
2024-03-07T04:28:23.315Z,39.70
2024-03-07T04:30:50.600Z,41.22
2024-03-07T04:33:17.717Z,41.05
2024-03-07T04:35:44.773Z,43.10
2024-03-07T04:38:16.383Z,43.40
2024-03-07T04:40:44.205Z,43.53
2024-03-07T04:43:11.569Z,43.95
2024-03-07T04:48:09.834Z,42.60
2024-03-07T04:50:36.824Z,44.15
2024-03-07T04:53:03.991Z,43.83
2024-03-07T04:55:33.001Z,42.55
2024-03-07T04:58:01.985Z,45.10
2024-03-07T05:00:30.525Z,46.00
2024-03-07T05:02:59.751Z,44.72
2024-03-07T05:05:29.373Z,44.75
2024-03-07T05:07:59.347Z,44.38
2024-03-07T05:10:31.553Z,45.25
2024-03-07T05:13:03.716Z,42.22
2024-03-07T05:15:36.524Z,41.40
2024-03-07T05:18:06.123Z,41.85
2024-03-07T05:20:35.590Z,40.97
2024-03-07T05:23:05.184Z,40.97
2024-03-07T05:25:32.058Z,41.15
2024-03-07T05:28:00.161Z,40.38
2024-03-07T05:30:27.238Z,40.17
2024-03-07T05:32:55.259Z,39.90
2024-03-07T05:35:22.784Z,39.30
2024-03-07T05:37:52.946Z,39.42
2024-03-07T05:40:22.565Z,40.45
2024-03-07T05:42:52.094Z,39.88
2024-03-07T05:45:19.452Z,36.97
2024-03-07T05:47:48.843Z,39.80
2024-03-07T05:50:18.145Z,38.72
2024-03-07T05:52:45.548Z,37.60
2024-03-07T05:55:14.439Z,36.55
2024-03-07T05:57:43.787Z,35.40
2024-03-07T06:00:16.410Z,34.33
2024-03-07T06:02:43.451Z,37.28
2024-03-07T06:05:17.200Z,33.90
2024-03-07T06:07:45.469Z,34.15
2024-03-07T06:10:12.560Z,34.75
2024-03-07T06:12:52.238Z,33.65
2024-03-07T06:15:23.957Z,34.08
2024-03-07T06:17:50.958Z,34.70
2024-03-07T06:20:26.967Z,33.17
2024-03-07T06:22:57.742Z,34.42
2024-03-07T06:25:47.117Z,33.75
2024-03-07T06:28:14.864Z,34.88
2024-03-07T06:30:46.342Z,33.08
2024-03-07T06:33:14.309Z,31.40
2024-03-07T06:35:42.517Z,33.80
2024-03-07T06:38:11.375Z,34.00
2024-03-07T06:40:43.754Z,32.05
2024-03-07T06:43:15.133Z,32.38
2024-03-07T06:45:43.010Z,30.80
2024-03-07T06:48:10.710Z,29.95
2024-03-07T06:50:39.361Z,30.13
2024-03-07T06:53:08.986Z,29.58
2024-03-07T06:55:39.296Z,30.00
2024-03-07T06:58:06.769Z,28.10
2024-03-07T07:03:08.624Z,28.38
2024-03-07T07:05:41.924Z,31.40
2024-03-07T07:08:09.812Z,28.63
2024-03-07T07:10:37.137Z,28.52
2024-03-07T07:13:05.813Z,27.55
2024-03-07T07:15:33.050Z,28.52
2024-03-07T07:18:00.662Z,28.48
2024-03-07T07:20:28.507Z,26.80
2024-03-07T07:22:55.987Z,27.73
2024-03-07T07:25:23.049Z,27.45
2024-03-07T07:27:52.974Z,28.13
2024-03-07T07:30:28.175Z,28.27
2024-03-07T07:32:57.514Z,27.98
2024-03-07T07:35:24.640Z,26.88
2024-03-07T07:37:54.812Z,27.23
2024-03-07T07:40:27.686Z,26.35
2024-03-07T07:42:55.391Z,25.98
2024-03-07T07:45:23.889Z,26.15
2024-03-07T07:48:00.125Z,25.15
2024-03-07T07:50:29.665Z,27.55
2024-03-07T07:53:00.087Z,27.40
2024-03-07T07:55:30.734Z,26.90
2024-03-07T07:58:01.603Z,26.75
2024-03-07T08:00:31.094Z,27.73
2024-03-07T08:03:02.661Z,28.58
2024-03-07T08:05:37.431Z,28.45
2024-03-07T08:08:09.238Z,27.50
2024-03-07T08:10:37.212Z,27.40
2024-03-07T08:13:11.853Z,29.95
2024-03-07T08:15:42.011Z,28.67
2024-03-07T08:18:13.334Z,29.40
2024-03-07T08:20:42.767Z,28.90
2024-03-07T08:23:10.617Z,29.40
2024-03-07T08:25:40.496Z,28.75
2024-03-07T08:28:08.385Z,30.95
2024-03-07T08:30:36.178Z,28.95
2024-03-07T08:33:06.864Z,28.05
2024-03-07T08:35:37.064Z,27.67
2024-03-07T08:38:04.279Z,29.73
2024-03-07T08:40:34.492Z,29.65
2024-03-07T08:43:02.493Z,29.10
2024-03-07T08:45:30.289Z,29.42
2024-03-07T08:47:59.561Z,30.13
2024-03-07T08:50:32.994Z,29.58
2024-03-07T08:53:00.171Z,29.50
2024-03-07T08:55:29.791Z,29.95
2024-03-07T08:57:58.788Z,30.38
2024-03-07T09:00:27.042Z,30.42
2024-03-07T09:02:59.750Z,29.17
2024-03-07T09:05:28.373Z,29.00
2024-03-07T09:07:58.043Z,31.33
2024-03-07T09:10:31.682Z,27.70
2024-03-07T09:12:59.686Z,30.58
2024-03-07T09:15:28.978Z,29.05
2024-03-07T09:18:05.612Z,30.17
2024-03-07T09:20:32.931Z,28.65
2024-03-07T09:23:01.301Z,28.77
2024-03-07T09:25:28.616Z,28.25
2024-03-07T09:28:01.334Z,27.42
2024-03-07T09:30:31.840Z,28.60
2024-03-07T09:33:03.041Z,28.20
2024-03-07T09:35:33.084Z,28.42
2024-03-07T09:38:00.393Z,30.00
2024-03-07T09:42:57.569Z,31.20
2024-03-07T09:45:30.477Z,30.67
2024-03-07T09:47:59.230Z,30.27
2024-03-07T09:50:29.159Z,29.40
2024-03-07T09:53:01.263Z,29.88
2024-03-07T09:55:28.648Z,29.27
2024-03-07T10:00:29.859Z,29.40
2024-03-07T10:03:00.151Z,30.65
2024-03-07T10:05:32.977Z,30.75
2024-03-07T10:08:03.508Z,32.45
2024-03-07T10:10:32.057Z,31.05
2024-03-07T10:13:02.217Z,33.45
2024-03-07T10:15:36.338Z,31.98
2024-03-07T10:18:15.856Z,32.05
2024-03-07T10:20:46.062Z,31.48
2024-03-07T10:23:13.136Z,31.25
2024-03-07T10:25:45.186Z,31.33
2024-03-07T10:28:12.391Z,32.53
2024-03-07T10:33:10.022Z,30.67
2024-03-07T10:35:40.716Z,31.23
2024-03-07T10:38:08.733Z,30.77
2024-03-07T10:40:42.319Z,30.02
2024-03-07T10:43:12.947Z,29.52
2024-03-07T10:45:48.138Z,29.77
2024-03-07T10:48:20.375Z,29.25
2024-03-07T10:51:07.700Z,30.63
2024-03-07T10:54:02.683Z,29.65
2024-03-07T10:56:57.550Z,29.50
2024-03-07T10:59:31.229Z,30.42
2024-03-07T11:02:03.404Z,30.98
2024-03-07T11:04:36.098Z,30.98
2024-03-07T11:07:05.516Z,29.58
2024-03-07T11:09:34.945Z,29.48
2024-03-07T11:12:07.650Z,29.52
2024-03-07T11:14:38.305Z,31.13
2024-03-07T11:17:06.192Z,28.08
2024-03-07T11:19:41.518Z,28.15
2024-03-07T11:22:26.888Z,26.65
2024-03-07T11:25:13.748Z,26.42
2024-03-07T11:27:43.550Z,24.83
2024-03-07T11:30:13.960Z,26.13
2024-03-07T11:32:42.259Z,25.33
2024-03-07T11:35:15.749Z,25.65
2024-03-07T11:37:50.034Z,24.75
2024-03-07T11:40:28.741Z,26.42
2024-03-07T11:43:00.911Z,25.00
2024-03-07T11:45:30.300Z,25.88
2024-03-07T11:48:24.674Z,25.75
2024-03-07T11:50:56.447Z,26.42
2024-03-07T11:53:23.775Z,26.73
2024-03-07T11:55:54.022Z,25.65
2024-03-07T11:58:23.386Z,28.05
2024-03-07T12:00:55.227Z,25.65
2024-03-07T12:03:23.489Z,26.85
2024-03-07T12:05:52.681Z,26.05
2024-03-07T12:08:24.595Z,26.33
2024-03-07T12:11:00.545Z,26.25
2024-03-07T12:13:28.758Z,26.92
2024-03-07T12:16:01.754Z,26.67
2024-03-07T12:18:33.707Z,26.17
2024-03-07T12:21:04.462Z,25.55
2024-03-07T12:23:31.800Z,24.95
2024-03-07T12:28:40.066Z,24.83
2024-03-07T12:31:16.739Z,25.90
2024-03-07T12:33:51.036Z,26.05
2024-03-07T12:36:18.405Z,24.33
2024-03-07T12:41:16.973Z,25.80
2024-03-07T12:43:47.190Z,26.08
2024-03-07T12:46:18.452Z,24.80
2024-03-07T12:48:50.605Z,25.73
2024-03-07T12:51:21.386Z,24.10
2024-03-07T12:53:54.931Z,24.60
2024-03-07T12:56:22.036Z,24.30
2024-03-07T12:58:51.744Z,25.40
2024-03-07T13:01:22.537Z,25.08
2024-03-07T13:03:50.825Z,25.55
2024-03-07T13:06:31.235Z,24.52
2024-03-07T13:09:03.896Z,23.23
2024-03-07T13:11:36.619Z,23.95
2024-03-07T13:14:03.845Z,23.77
2024-03-07T13:16:33.199Z,23.33
2024-03-07T13:19:00.781Z,31.33
2024-03-07T13:21:31.994Z,25.55
2024-03-07T13:24:02.692Z,25.77
2024-03-07T13:26:32.924Z,24.38
2024-03-07T13:29:03.301Z,24.20
2024-03-07T13:31:44.091Z,24.60
2024-03-07T13:34:14.237Z,25.20
2024-03-07T13:36:44.377Z,25.60
2024-03-07T13:39:12.942Z,26.45
2024-03-07T13:41:40.309Z,26.17
2024-03-07T13:46:36.816Z,27.10
2024-03-07T13:49:17.605Z,27.58
2024-03-07T13:51:54.645Z,26.55
2024-03-07T13:54:33.637Z,28.10
2024-03-07T13:57:22.861Z,27.90
2024-03-07T13:59:54.206Z,29.02
2024-03-07T14:02:52.681Z,28.17
2024-03-07T14:05:59.400Z,28.60
2024-03-07T14:09:21.088Z,35.15
2024-03-07T14:12:28.011Z,28.25
2024-03-07T14:15:37.420Z,29.13
2024-03-07T14:18:22.942Z,30.23
2024-03-07T14:21:38.536Z,30.25
2024-03-07T14:24:44.056Z,28.75
2024-03-07T14:27:29.610Z,29.20
2024-03-07T14:30:27.039Z,27.08
2024-03-07T14:33:01.988Z,29.25
2024-03-07T14:38:44.779Z,28.30
2024-03-07T14:41:15.834Z,28.55
2024-03-07T14:43:43.878Z,28.20
2024-03-07T14:46:13.920Z,25.38
2024-03-07T14:48:41.848Z,27.33
2024-03-07T14:54:10.288Z,27.85
2024-03-07T14:56:37.975Z,25.98
2024-03-07T14:59:21.224Z,25.38
2024-03-07T15:01:48.623Z,24.70
2024-03-07T15:06:53.906Z,24.50
2024-03-07T15:09:31.477Z,24.77
2024-03-07T15:12:05.865Z,25.23
2024-03-07T15:14:40.248Z,25.38
2024-03-07T15:17:11.253Z,25.10
2024-03-07T15:23:21.360Z,26.33
2024-03-07T15:26:23.088Z,25.45
2024-03-07T15:32:40.296Z,26.02
2024-03-07T15:35:36.143Z,25.15
2024-03-07T15:38:03.669Z,25.83
2024-03-07T15:43:00.033Z,24.13
2024-03-07T15:48:23.738Z,26.13
2024-03-07T15:50:53.506Z,26.08
2024-03-07T15:53:40.947Z,23.73
2024-03-07T15:56:33.244Z,23.88
2024-03-07T15:59:01.254Z,23.52
2024-03-07T16:01:28.920Z,25.33
2024-03-07T16:03:56.720Z,22.20
2024-03-07T16:06:23.747Z,22.42
2024-03-07T16:08:50.964Z,24.00
2024-03-07T16:13:53.175Z,22.67
2024-03-07T16:16:21.992Z,22.65
2024-03-07T16:18:49.345Z,22.25
2024-03-07T16:21:33.610Z,22.05
2024-03-07T16:24:02.154Z,22.70
2024-03-07T16:26:36.077Z,22.80
2024-03-07T16:29:06.214Z,22.38
2024-03-07T16:31:33.279Z,22.42
2024-03-07T16:34:04.096Z,22.25
2024-03-07T16:36:31.145Z,22.05
2024-03-07T16:38:58.286Z,33.33
2024-03-07T16:41:27.686Z,23.88
2024-03-07T16:43:55.091Z,22.20
2024-03-07T16:48:56.404Z,23.13
2024-03-07T16:51:29.673Z,23.55
2024-03-07T16:53:59.362Z,22.13
2024-03-07T16:56:30.263Z,24.15
2024-03-07T16:58:57.244Z,21.55
2024-03-07T17:01:25.281Z,23.52
2024-03-07T17:03:54.941Z,23.50
2024-03-07T17:06:24.201Z,23.35
2024-03-07T17:08:55.067Z,23.70
2024-03-07T17:11:25.912Z,22.27
2024-03-07T17:13:54.495Z,23.35
2024-03-07T17:16:24.098Z,22.73
2024-03-07T17:18:51.087Z,21.80
2024-03-07T17:21:18.083Z,21.88
2024-03-07T17:23:52.235Z,22.40
2024-03-07T17:26:21.706Z,23.55
2024-03-07T17:28:51.281Z,26.73
2024-03-07T17:31:18.253Z,24.67
2024-03-07T17:33:47.353Z,23.13
2024-03-07T17:36:15.110Z,26.08
2024-03-07T17:38:44.847Z,24.38
2024-03-07T17:41:17.311Z,22.75
2024-03-07T17:43:47.466Z,23.20
2024-03-07T17:46:15.379Z,23.45
2024-03-07T17:48:42.617Z,22.73
2024-03-07T17:53:41.452Z,22.70
2024-03-07T17:56:08.430Z,22.83
2024-03-07T17:58:36.470Z,23.55
2024-03-07T18:01:07.793Z,22.60
2024-03-07T18:03:38.258Z,23.00
2024-03-07T18:06:06.535Z,23.00
2024-03-07T18:08:42.580Z,21.50
2024-03-07T18:11:16.454Z,22.05
2024-03-07T18:13:47.917Z,22.38
2024-03-07T18:16:18.554Z,20.90
2024-03-07T18:18:50.333Z,24.58
2024-03-07T18:21:18.055Z,23.60
2024-03-07T18:23:46.512Z,24.33
2024-03-07T18:26:15.802Z,23.17
2024-03-07T18:28:45.745Z,22.75
2024-03-07T18:31:19.040Z,26.67
2024-03-07T18:33:46.652Z,23.35
2024-03-07T18:36:44.848Z,22.10
2024-03-07T18:39:18.048Z,22.08
2024-03-07T18:41:52.241Z,21.70
2024-03-07T18:44:19.311Z,20.60
2024-03-07T18:46:46.257Z,20.80
2024-03-07T18:49:14.211Z,21.40
2024-03-07T18:51:42.548Z,22.33
2024-03-07T18:54:10.615Z,22.70
2024-03-07T18:56:40.032Z,22.92
2024-03-07T18:59:09.428Z,25.13
2024-03-07T19:01:37.287Z,21.92
2024-03-07T19:04:07.327Z,21.70
2024-03-07T19:06:41.188Z,21.67
2024-03-07T19:09:14.362Z,22.35
2024-03-07T19:11:47.955Z,27.40
2024-03-07T19:14:17.442Z,23.38
2024-03-07T19:16:54.158Z,21.52
2024-03-07T19:19:25.962Z,21.95
2024-03-07T19:21:52.942Z,21.08
2024-03-07T19:24:20.441Z,19.77
2024-03-07T19:26:49.451Z,21.02
2024-03-07T19:29:22.225Z,21.25
2024-03-07T19:31:55.126Z,22.10
2024-03-07T19:34:22.302Z,21.27
2024-03-07T19:36:54.962Z,21.70
2024-03-07T19:39:23.105Z,21.40
2024-03-07T19:41:59.110Z,22.85
2024-03-07T19:44:37.149Z,21.95
2024-03-07T19:47:06.293Z,21.52
2024-03-07T19:49:36.700Z,21.38
2024-03-07T19:52:11.088Z,20.98
2024-03-07T19:54:39.457Z,22.35
2024-03-07T19:57:06.986Z,21.73
2024-03-07T19:59:34.183Z,22.00
2024-03-07T20:02:01.308Z,21.23
2024-03-07T20:04:30.321Z,21.60
2024-03-07T20:06:59.602Z,20.70
2024-03-07T20:09:26.598Z,27.80
2024-03-07T20:11:55.463Z,21.83
2024-03-07T20:14:24.815Z,20.10
2024-03-07T20:16:53.832Z,20.38
2024-03-07T20:19:20.899Z,21.70
2024-03-07T20:21:49.360Z,20.35
2024-03-07T20:24:16.453Z,19.60
2024-03-07T20:26:49.240Z,20.73
2024-03-07T20:29:16.478Z,20.98
2024-03-07T20:31:46.193Z,19.98
2024-03-07T20:34:13.876Z,19.80
2024-03-07T20:36:43.215Z,20.42
2024-03-07T20:39:12.485Z,20.60
2024-03-07T20:41:39.564Z,19.40
2024-03-07T20:44:08.107Z,19.27
2024-03-07T20:46:35.105Z,21.33
2024-03-07T20:49:04.202Z,21.67
2024-03-07T20:51:37.840Z,29.02
2024-03-07T20:54:08.858Z,22.33
2024-03-07T20:56:35.846Z,25.45
2024-03-07T20:59:07.817Z,21.05
2024-03-07T21:01:36.355Z,17.27
2024-03-07T21:04:05.534Z,18.65
2024-03-07T21:06:33.005Z,18.70
2024-03-07T21:09:00.107Z,18.17
2024-03-07T21:11:29.517Z,17.33
2024-03-07T21:13:57.126Z,16.67
2024-03-07T21:16:24.067Z,17.40
2024-03-07T21:18:51.104Z,17.50
2024-03-07T21:21:18.092Z,16.70
2024-03-07T21:23:47.193Z,17.20
2024-03-07T21:26:16.949Z,18.50
2024-03-07T21:28:50.185Z,17.42
2024-03-07T21:31:20.359Z,18.35
2024-03-07T21:33:50.431Z,17.85
2024-03-07T21:36:17.488Z,18.52
2024-03-07T21:38:51.323Z,18.23
2024-03-07T21:41:21.012Z,17.50
2024-03-07T21:43:48.245Z,18.38
2024-03-07T21:46:17.246Z,18.20
2024-03-07T21:48:44.526Z,16.80
2024-03-07T21:51:12.573Z,18.60
2024-03-07T21:53:45.140Z,18.27
2024-03-07T21:56:14.862Z,19.02
2024-03-07T21:58:43.918Z,17.20
2024-03-07T22:01:13.368Z,18.73
2024-03-07T22:03:42.830Z,18.85
2024-03-07T22:06:12.249Z,18.50
2024-03-07T22:08:40.661Z,19.08
2024-03-07T22:11:16.018Z,18.92
2024-03-07T22:13:47.781Z,19.08
2024-03-07T22:16:16.915Z,18.73
2024-03-07T22:18:48.096Z,19.23
2024-03-07T22:21:16.157Z,19.88
2024-03-07T22:23:44.728Z,19.00
2024-03-07T22:26:13.246Z,18.85
2024-03-07T22:28:40.478Z,18.17
2024-03-07T22:31:11.092Z,19.75
2024-03-07T22:33:40.665Z,18.75
2024-03-07T22:36:11.527Z,19.10
2024-03-07T22:38:38.644Z,19.33
2024-03-07T22:41:08.110Z,18.35
2024-03-07T22:43:35.085Z,20.35
2024-03-07T22:46:02.063Z,17.45
2024-03-07T22:48:33.503Z,18.17
2024-03-07T22:51:02.304Z,19.75
2024-03-07T22:53:32.221Z,20.42
2024-03-07T22:55:59.413Z,19.38
2024-03-07T22:58:26.369Z,18.88
2024-03-07T23:00:53.963Z,19.52
2024-03-07T23:03:26.329Z,19.67
2024-03-07T23:05:54.144Z,19.17
2024-03-07T23:08:21.973Z,20.30
2024-03-07T23:10:53.678Z,18.98
2024-03-07T23:13:20.576Z,19.38
2024-03-07T23:15:47.597Z,18.23
2024-03-07T23:18:18.999Z,18.27
2024-03-07T23:20:46.110Z,19.98
2024-03-07T23:23:13.175Z,19.17
2024-03-07T23:25:44.876Z,19.50
2024-03-07T23:28:20.569Z,19.42
2024-03-07T23:30:47.880Z,19.55
2024-03-07T23:33:15.100Z,19.90
2024-03-07T23:35:45.204Z,19.27
2024-03-07T23:38:14.530Z,18.90
2024-03-07T23:40:41.449Z,20.10
2024-03-07T23:43:09.466Z,19.02
2024-03-07T23:45:38.709Z,19.63
2024-03-07T23:48:06.982Z,20.85
2024-03-07T23:50:33.983Z,18.58
2024-03-07T23:53:00.960Z,19.70
2024-03-07T23:55:28.948Z,18.90
2024-03-07T23:57:55.842Z,20.35
